Time;durP1;ratioP1;P1;durP2;ratioP2;P2;SDS_P1;SDS_P2;PMS_P1;PMS_P2;Temp;Humidity;BMP_temperature;BMP_pressure;BME280_temperature;BME280_humidity;BME280_pressure;Samples;Min_cycle;Max_cycle;Signal;HPM_P1;HPM_P2
2023/06/09 00:00:47;;;;;;;8.07;7.15;;;;;;;;;;5082613;28;20208;-68
2023/06/09 00:03:16;;;;;;;7.57;6.93;;;;;;;;;;5082083;28;20520;-68
2023/06/09 00:05:42;;;;;;;7.70;7.10;;;;;;;;;;5082304;28;20253;-68
2023/06/09 00:08:08;;;;;;;7.45;6.85;;;;;;;;;;5082177;28;20207;-67
2023/06/09 00:10:35;;;;;;;7.78;6.90;;;;;;;;;;5082353;28;20196;-67
2023/06/09 00:13:03;;;;;;;9.23;6.97;;;;;;;;;;5082409;28;20196;-67
2023/06/09 00:15:29;;;;;;;8.27;7.47;;;;;;;;;;5082412;28;20212;-68
2023/06/09 00:17:56;;;;;;;8.32;7.63;;;;;;;;;;5081974;28;20204;-67
2023/06/09 00:20:24;;;;;;;8.48;7.68;;;;;;;;;;5082308;28;20197;-67
2023/06/09 00:22:51;;;;;;;7.57;6.97;;;;;;;;;;5082184;28;20436;-67
2023/06/09 00:25:20;;;;;;;7.72;7.03;;;;;;;;;;5082148;28;20287;-67
2023/06/09 00:27:46;;;;;;;8.35;7.65;;;;;;;;;;5081881;28;20287;-67
2023/06/09 00:30:15;;;;;;;7.38;6.72;;;;;;;;;;5082102;28;20200;-67
2023/06/09 00:32:42;;;;;;;8.07;7.38;;;;;;;;;;5082045;28;20200;-67
2023/06/09 00:35:09;;;;;;;7.30;6.70;;;;;;;;;;5082652;28;20193;-67
2023/06/09 00:37:35;;;;;;;8.10;7.47;;;;;;;;;;5081913;28;20195;-67
2023/06/09 00:40:03;;;;;;;8.18;7.57;;;;;;;;;;5081961;28;20202;-67
2023/06/09 00:42:30;;;;;;;7.90;7.20;;;;;;;;;;5081975;28;20224;-67
2023/06/09 00:44:56;;;;;;;8.38;7.40;;;;;;;;;;5082063;28;20200;-67
2023/06/09 00:47:24;;;;;;;7.20;6.60;;;;;;;;;;5081661;28;20196;-67
2023/06/09 00:49:50;;;;;;;8.13;7.38;;;;;;;;;;5081694;28;20206;-67
2023/06/09 00:52:17;;;;;;;8.73;7.07;;;;;;;;;;5082413;28;20267;-67
2023/06/09 00:54:43;;;;;;;7.43;6.72;;;;;;;;;;5081979;28;20204;-67
2023/06/09 00:57:10;;;;;;;7.80;7.10;;;;;;;;;;5081713;28;20196;-67
2023/06/09 00:59:36;;;;;;;7.28;6.70;;;;;;;;;;5081723;28;20204;-67
2023/06/09 01:02:04;;;;;;;7.45;6.85;;;;;;;;;;5081359;28;20222;-67
2023/06/09 01:04:32;;;;;;;6.82;6.30;;;;;;;;;;5081895;28;20203;-67
2023/06/09 01:07:03;;;;;;;7.22;6.70;;;;;;;;;;5081429;28;20220;-67
2023/06/09 01:09:32;;;;;;;7.20;6.68;;;;;;;;;;5081668;28;20552;-67
2023/06/09 01:12:03;;;;;;;6.75;6.18;;;;;;;;;;5081471;28;20220;-67
2023/06/09 01:14:32;;;;;;;7.43;6.75;;;;;;;;;;5081944;28;20200;-67
2023/06/09 01:17:02;;;;;;;7.85;7.15;;;;;;;;;;5085672;28;20200;-67
2023/06/09 01:19:33;;;;;;;7.70;7.10;;;;;;;;;;5085858;28;20504;-67
2023/06/09 01:22:02;;;;;;;6.70;6.20;;;;;;;;;;5085561;28;20205;-67
2023/06/09 01:24:30;;;;;;;7.57;7.00;;;;;;;;;;5086002;28;20196;-67
2023/06/09 01:26:59;;;;;;;7.88;7.18;;;;;;;;;;5085405;28;20220;-67
2023/06/09 01:29:26;;;;;;;7.35;6.75;;;;;;;;;;5085599;28;20219;-67
2023/06/09 01:31:52;;;;;;;7.15;6.63;;;;;;;;;;5085469;28;20242;-67
2023/06/09 01:34:19;;;;;;;7.40;6.75;;;;;;;;;;5085507;28;20196;-67
2023/06/09 01:36:45;;;;;;;7.22;6.72;;;;;;;;;;5085139;28;20523;-67
2023/06/09 01:39:12;;;;;;;8.43;7.00;;;;;;;;;;5085411;28;20407;-67
2023/06/09 01:41:38;;;;;;;7.18;6.68;;;;;;;;;;5085551;28;20207;-67
2023/06/09 01:44:06;;;;;;;11.32;6.93;;;;;;;;;;5085173;28;20200;-67
2023/06/09 01:46:32;;;;;;;7.50;6.85;;;;;;;;;;5085126;28;20227;-67
2023/06/09 01:49:06;;;;;;;7.57;6.90;;;;;;;;;;5085323;28;20200;-68
2023/06/09 01:51:36;;;;;;;8.00;7.25;;;;;;;;;;5085410;28;20210;-67
2023/06/09 01:54:06;;;;;;;7.38;6.72;;;;;;;;;;5085686;28;20188;-67
2023/06/09 01:56:37;;;;;;;8.20;7.45;;;;;;;;;;5085098;28;20192;-67
2023/06/09 01:59:06;;;;;;;8.05;7.45;;;;;;;;;;5084975;28;20200;-67
2023/06/09 02:01:34;;;;;;;7.72;6.97;;;;;;;;;;5084836;28;20197;-67
2023/06/09 02:04:03;;;;;;;7.93;7.18;;;;;;;;;;5084807;28;22361;-67
2023/06/09 02:06:30;;;;;;;7.28;6.70;;;;;;;;;;5084601;28;20254;-67
2023/06/09 02:08:56;;;;;;;8.52;7.82;;;;;;;;;;5083663;28;20460;-67
2023/06/09 02:11:22;;;;;;;11.10;7.43;;;;;;;;;;5083749;28;20203;-67
2023/06/09 02:13:52;;;;;;;8.43;7.63;;;;;;;;;;5083560;28;20259;-67
2023/06/09 02:16:18;;;;;;;8.40;7.70;;;;;;;;;;5083177;28;20229;-67
2023/06/09 02:18:48;;;;;;;7.25;6.75;;;;;;;;;;5083596;28;20204;-67
2023/06/09 02:21:15;;;;;;;9.07;7.25;;;;;;;;;;5083456;28;20371;-67
2023/06/09 02:23:41;;;;;;;7.75;7.15;;;;;;;;;;5083244;28;20553;-67
2023/06/09 02:26:07;;;;;;;8.23;7.60;;;;;;;;;;5082667;28;20255;-67
2023/06/09 02:28:34;;;;;;;8.18;7.40;;;;;;;;;;5083019;28;20255;-67
2023/06/09 02:31:00;;;;;;;9.30;7.72;;;;;;;;;;5083100;28;20531;-67
2023/06/09 02:33:26;;;;;;;8.23;7.63;;;;;;;;;;5083380;28;20205;-67
2023/06/09 02:35:54;;;;;;;7.80;7.03;;;;;;;;;;5083144;28;20223;-67
2023/06/09 02:38:21;;;;;;;8.73;7.65;;;;;;;;;;5083119;28;20243;-68
2023/06/09 02:40:48;;;;;;;7.45;6.85;;;;;;;;;;5083054;28;20602;-67
2023/06/09 02:43:14;;;;;;;9.70;7.55;;;;;;;;;;5083028;28;20238;-67
2023/06/09 02:45:41;;;;;;;8.05;7.35;;;;;;;;;;5083190;28;20224;-67
2023/06/09 02:48:07;;;;;;;8.07;7.38;;;;;;;;;;5082645;28;20205;-67
2023/06/09 02:50:33;;;;;;;9.02;8.23;;;;;;;;;;5082902;28;20261;-67
2023/06/09 02:53:01;;;;;;;7.82;7.03;;;;;;;;;;5082980;28;20553;-67
2023/06/09 02:55:28;;;;;;;7.30;6.68;;;;;;;;;;5082885;28;20504;-67
2023/06/09 02:57:54;;;;;;;8.05;7.43;;;;;;;;;;5082467;28;20507;-67
2023/06/09 03:00:21;;;;;;;8.27;7.57;;;;;;;;;;5082809;28;20242;-67
2023/06/09 03:02:51;;;;;;;8.02;7.35;;;;;;;;;;5082945;28;20261;-67
2023/06/09 03:05:20;;;;;;;7.95;7.30;;;;;;;;;;5083074;28;20207;-68
2023/06/09 03:07:47;;;;;;;7.18;6.68;;;;;;;;;;5046563;28;1033105;-67
2023/06/09 03:10:14;;;;;;;7.63;7.03;;;;;;;;;;5083619;28;20197;-67
2023/06/09 03:12:41;;;;;;;8.07;7.40;;;;;;;;;;5083613;28;20204;-67
2023/06/09 03:15:08;;;;;;;8.88;6.82;;;;;;;;;;5083757;28;20201;-67
2023/06/09 03:17:34;;;;;;;7.78;7.18;;;;;;;;;;5083421;28;20395;-68
2023/06/09 03:20:00;;;;;;;8.25;7.50;;;;;;;;;;5083544;28;20403;-68
2023/06/09 03:22:28;;;;;;;7.32;6.72;;;;;;;;;;5083584;28;20201;-68
2023/06/09 03:24:54;;;;;;;7.85;7.25;;;;;;;;;;5083341;28;20272;-67
2023/06/09 03:27:22;;;;;;;7.40;6.80;;;;;;;;;;5083149;28;20217;-67
2023/06/09 03:29:48;;;;;;;7.18;6.53;;;;;;;;;;5083555;28;20200;-67
2023/06/09 03:32:14;;;;;;;7.78;7.05;;;;;;;;;;5083407;28;20266;-67
2023/06/09 03:34:41;;;;;;;7.65;6.95;;;;;;;;;;5083228;28;20254;-67
2023/06/09 03:37:09;;;;;;;7.80;7.07;;;;;;;;;;5082281;28;20204;-67
2023/06/09 03:39:35;;;;;;;7.20;6.63;;;;;;;;;;5082844;28;20196;-67
2023/06/09 03:42:01;;;;;;;7.80;7.20;;;;;;;;;;5083199;28;20201;-67
2023/06/09 03:44:29;;;;;;;8.02;7.35;;;;;;;;;;5083336;28;20367;-67
2023/06/09 03:46:55;;;;;;;8.52;7.57;;;;;;;;;;5082627;28;20531;-68
2023/06/09 03:49:21;;;;;;;8.27;7.57;;;;;;;;;;5082982;28;20553;-68
2023/06/09 03:51:47;;;;;;;9.48;7.90;;;;;;;;;;5082814;28;20403;-68
2023/06/09 03:54:14;;;;;;;8.50;7.80;;;;;;;;;;5082523;28;20298;-68
2023/06/09 03:56:40;;;;;;;7.88;7.18;;;;;;;;;;5082742;28;20196;-68
2023/06/09 03:59:06;;;;;;;8.57;7.88;;;;;;;;;;5082660;28;20246;-68
2023/06/09 04:01:34;;;;;;;8.00;7.30;;;;;;;;;;5082747;28;20319;-68
2023/06/09 04:04:00;;;;;;;8.02;7.45;;;;;;;;;;5082594;28;20238;-67
2023/06/09 04:06:28;;;;;;;8.70;7.85;;;;;;;;;;5082271;28;20274;-68
2023/06/09 04:08:55;;;;;;;8.68;7.88;;;;;;;;;;5082320;28;20406;-68
2023/06/09 04:11:21;;;;;;;9.10;8.20;;;;;;;;;;5082362;28;20228;-68
2023/06/09 04:13:48;;;;;;;8.95;8.15;;;;;;;;;;5082518;28;20201;-68
2023/06/09 04:16:14;;;;;;;8.48;7.78;;;;;;;;;;5082050;28;20231;-69
2023/06/09 04:18:41;;;;;;;10.80;8.77;;;;;;;;;;5082243;28;20200;-69
2023/06/09 04:21:08;;;;;;;7.60;7.00;;;;;;;;;;5082156;28;20246;-69
2023/06/09 04:23:38;;;;;;;7.97;7.35;;;;;;;;;;5082072;28;20212;-68
2023/06/09 04:26:05;;;;;;;9.00;8.20;;;;;;;;;;5081850;28;20208;-68
2023/06/09 04:28:32;;;;;;;7.47;6.97;;;;;;;;;;5082200;28;20258;-68
2023/06/09 04:31:00;;;;;;;8.73;7.97;;;;;;;;;;5082105;28;20200;-68
2023/06/09 04:33:27;;;;;;;8.10;7.38;;;;;;;;;;5081950;28;20258;-68
2023/06/09 04:35:55;;;;;;;7.78;7.07;;;;;;;;;;5081804;28;20222;-68
2023/06/09 04:38:23;;;;;;;8.00;7.30;;;;;;;;;;5082591;28;20204;-69
2023/06/09 04:40:49;;;;;;;8.55;7.75;;;;;;;;;;5082780;28;20428;-69
2023/06/09 04:43:16;;;;;;;8.73;7.88;;;;;;;;;;5082192;28;20197;-68
2023/06/09 04:45:43;;;;;;;9.52;7.70;;;;;;;;;;5081951;28;20207;-68
2023/06/09 04:48:10;;;;;;;8.45;7.75;;;;;;;;;;5081658;28;20441;-68
2023/06/09 04:50:37;;;;;;;12.95;8.52;;;;;;;;;;5081630;28;20189;-68
2023/06/09 04:53:07;;;;;;;9.73;8.73;;;;;;;;;;5081978;28;20504;-68
2023/06/09 04:55:33;;;;;;;9.43;8.63;;;;;;;;;;5081778;28;20223;-68
2023/06/09 04:57:59;;;;;;;9.45;8.48;;;;;;;;;;5081642;28;20204;-68
2023/06/09 05:00:26;;;;;;;10.15;9.18;;;;;;;;;;5081851;28;20196;-68
2023/06/09 05:02:53;;;;;;;9.32;8.50;;;;;;;;;;5081569;28;20201;-68
2023/06/09 05:05:19;;;;;;;10.32;9.43;;;;;;;;;;5081669;28;20219;-68
2023/06/09 05:07:45;;;;;;;11.73;10.65;;;;;;;;;;5081650;28;20224;-69
2023/06/09 05:10:13;;;;;;;10.80;9.80;;;;;;;;;;5081684;28;20429;-69
2023/06/09 05:12:40;;;;;;;9.57;8.77;;;;;;;;;;5081833;28;20222;-69
2023/06/09 05:15:07;;;;;;;10.50;9.60;;;;;;;;;;5081617;28;20258;-69
2023/06/09 05:17:34;;;;;;;10.57;9.55;;;;;;;;;;5081428;28;20434;-68
2023/06/09 05:20:00;;;;;;;11.80;10.30;;;;;;;;;;5081415;28;20204;-68
2023/06/09 05:22:26;;;;;;;11.38;10.18;;;;;;;;;;5081635;28;20196;-68
2023/06/09 05:24:53;;;;;;;11.20;10.20;;;;;;;;;;5081643;28;20216;-68
2023/06/09 05:27:20;;;;;;;11.23;10.30;;;;;;;;;;5081807;28;20230;-69
2023/06/09 05:29:47;;;;;;;10.25;9.40;;;;;;;;;;5081552;28;20512;-69
2023/06/09 05:32:13;;;;;;;10.75;9.85;;;;;;;;;;5081533;28;20469;-68
2023/06/09 05:34:39;;;;;;;11.13;9.57;;;;;;;;;;5082029;28;20459;-68
2023/06/09 05:37:06;;;;;;;10.93;9.40;;;;;;;;;;5081380;28;20196;-67
2023/06/09 05:39:32;;;;;;;10.65;9.63;;;;;;;;;;5081623;28;20203;-68
2023/06/09 05:42:01;;;;;;;9.85;8.93;;;;;;;;;;5081580;28;20200;-68
2023/06/09 05:44:29;;;;;;;10.65;9.55;;;;;;;;;;5081665;28;20253;-68
2023/06/09 05:46:56;;;;;;;9.10;8.20;;;;;;;;;;5081073;28;20419;-69
2023/06/09 05:49:22;;;;;;;9.82;8.82;;;;;;;;;;5081583;28;20197;-68
2023/06/09 05:51:48;;;;;;;10.23;9.23;;;;;;;;;;5081639;28;20238;-69
2023/06/09 05:54:14;;;;;;;10.48;9.45;;;;;;;;;;5081532;28;20459;-68
2023/06/09 05:56:42;;;;;;;9.57;8.70;;;;;;;;;;5081200;28;20268;-68
2023/06/09 05:59:09;;;;;;;9.85;8.95;;;;;;;;;;5081226;28;20204;-68
2023/06/09 06:01:37;;;;;;;10.18;9.20;;;;;;;;;;5083893;28;20528;-68
2023/06/09 06:04:03;;;;;;;9.98;8.55;;;;;;;;;;5085126;28;20422;-68
2023/06/09 06:06:30;;;;;;;9.13;8.30;;;;;;;;;;5084813;28;20497;-68
2023/06/09 06:08:56;;;;;;;9.50;8.52;;;;;;;;;;5084853;28;20208;-68
2023/06/09 06:11:22;;;;;;;9.32;8.55;;;;;;;;;;5084991;28;20196;-68
2023/06/09 06:13:48;;;;;;;9.77;8.98;;;;;;;;;;5084744;28;20204;-68
2023/06/09 06:16:15;;;;;;;8.85;8.07;;;;;;;;;;5084465;28;20192;-68
2023/06/09 06:18:42;;;;;;;11.50;9.95;;;;;;;;;;5084718;28;20272;-68
2023/06/09 06:21:09;;;;;;;9.98;9.07;;;;;;;;;;5084886;28;20254;-68
2023/06/09 06:23:35;;;;;;;10.52;9.02;;;;;;;;;;5084689;28;20197;-68
2023/06/09 06:26:02;;;;;;;8.65;7.68;;;;;;;;;;5084343;28;20204;-68
2023/06/09 06:28:28;;;;;;;11.73;7.85;;;;;;;;;;5084520;28;20228;-68
2023/06/09 06:30:55;;;;;;;8.93;8.00;;;;;;;;;;5084615;28;20200;-68
2023/06/09 06:33:21;;;;;;;7.95;7.25;;;;;;;;;;5084652;28;20239;-68
2023/06/09 06:35:49;;;;;;;8.40;7.60;;;;;;;;;;5084630;28;20204;-68
2023/06/09 06:38:15;;;;;;;8.00;7.40;;;;;;;;;;5084283;28;20196;-68
2023/06/09 06:40:42;;;;;;;7.10;6.63;;;;;;;;;;5084529;28;20200;-68
2023/06/09 06:43:08;;;;;;;7.22;6.53;;;;;;;;;;5084175;28;20201;-68
2023/06/09 06:45:34;;;;;;;9.90;6.80;;;;;;;;;;5084530;28;20201;-68
2023/06/09 06:48:01;;;;;;;7.30;6.80;;;;;;;;;;5084109;28;20216;-68
2023/06/09 06:50:28;;;;;;;7.30;6.80;;;;;;;;;;5084306;28;20263;-68
2023/06/09 06:52:55;;;;;;;7.55;6.95;;;;;;;;;;5084147;28;20217;-68
2023/06/09 06:55:21;;;;;;;7.88;7.10;;;;;;;;;;5083996;28;20210;-68
2023/06/09 06:57:48;;;;;;;8.52;6.55;;;;;;;;;;5083610;28;20196;-68
2023/06/09 07:00:15;;;;;;;6.65;6.15;;;;;;;;;;5083683;28;20227;-68
2023/06/09 07:02:41;;;;;;;7.30;6.60;;;;;;;;;;5083678;28;20507;-68
2023/06/09 07:05:08;;;;;;;6.93;6.38;;;;;;;;;;5083634;28;20200;-68
2023/06/09 07:07:34;;;;;;;7.00;6.28;;;;;;;;;;5083160;28;20216;-68
2023/06/09 07:10:02;;;;;;;8.10;6.43;;;;;;;;;;5083406;28;20200;-68
2023/06/09 07:12:28;;;;;;;6.72;6.05;;;;;;;;;;5080700;28;20219;-68
2023/06/09 07:14:55;;;;;;;10.98;6.65;;;;;;;;;;5079515;28;20200;-68
2023/06/09 07:17:21;;;;;;;9.77;6.60;;;;;;;;;;5083056;28;20429;-68
2023/06/09 07:19:48;;;;;;;6.47;5.97;;;;;;;;;;5083396;28;20246;-68
2023/06/09 07:22:14;;;;;;;8.00;5.30;;;;;;;;;;5083192;28;20212;-68
2023/06/09 07:24:40;;;;;;;5.97;5.28;;;;;;;;;;5083330;28;20200;-69
2023/06/09 07:27:08;;;;;;;5.90;5.25;;;;;;;;;;5082938;28;20274;-69
2023/06/09 07:29:35;;;;;;;5.53;4.90;;;;;;;;;;5083577;28;20429;-69
2023/06/09 07:32:01;;;;;;;4.68;4.28;;;;;;;;;;5083329;28;20200;-69
2023/06/09 07:34:28;;;;;;;4.40;4.00;;;;;;;;;;5083582;28;20197;-69
2023/06/09 07:36:54;;;;;;;4.95;4.57;;;;;;;;;;5083062;28;20212;-69
2023/06/09 07:39:20;;;;;;;4.35;4.05;;;;;;;;;;5082816;28;20439;-69
2023/06/09 07:41:47;;;;;;;4.50;4.10;;;;;;;;;;5083457;28;20207;-69
2023/06/09 07:44:14;;;;;;;6.13;3.83;;;;;;;;;;5082929;28;20204;-69
2023/06/09 07:46:41;;;;;;;4.00;3.80;;;;;;;;;;5082689;28;20246;-69
2023/06/09 07:49:07;;;;;;;3.58;3.28;;;;;;;;;;5082590;28;20224;-69
2023/06/09 07:51:36;;;;;;;3.55;3.35;;;;;;;;;;5082655;28;20196;-69
2023/06/09 07:54:03;;;;;;;5.00;3.50;;;;;;;;;;5082859;28;20215;-69
2023/06/09 07:56:29;;;;;;;3.55;3.30;;;;;;;;;;5082311;28;20203;-69
2023/06/09 07:58:55;;;;;;;3.10;2.90;;;;;;;;;;5082694;28;20234;-69
2023/06/09 08:01:23;;;;;;;4.75;3.17;;;;;;;;;;5082542;28;20212;-69
2023/06/09 08:03:49;;;;;;;3.38;3.10;;;;;;;;;;5082931;28;20402;-69
2023/06/09 08:06:16;;;;;;;2.83;2.72;;;;;;;;;;5081857;28;20200;-69
2023/06/09 08:08:43;;;;;;;2.90;2.80;;;;;;;;;;5082229;28;20246;-69
2023/06/09 08:11:10;;;;;;;3.15;2.85;;;;;;;;;;5082455;28;20296;-69
2023/06/09 08:13:36;;;;;;;3.38;3.28;;;;;;;;;;5082353;28;20197;-69
2023/06/09 08:16:02;;;;;;;2.85;2.75;;;;;;;;;;5082189;28;20430;-69
2023/06/09 08:18:30;;;;;;;3.28;3.08;;;;;;;;;;5074425;28;20500;-69
2023/06/09 08:20:56;;;;;;;3.72;3.53;;;;;;;;;;5082363;28;20507;-69
2023/06/09 08:23:22;;;;;;;3.78;3.33;;;;;;;;;;5081935;28;20527;-69
2023/06/09 08:25:49;;;;;;;2.85;2.70;;;;;;;;;;5082389;28;20200;-69
2023/06/09 08:28:15;;;;;;;3.17;2.67;;;;;;;;;;5081794;28;20224;-69
2023/06/09 08:30:42;;;;;;;3.03;2.72;;;;;;;;;;5082362;28;20196;-69
2023/06/09 08:33:08;;;;;;;2.83;2.63;;;;;;;;;;5082256;28;20200;-69
2023/06/09 08:35:35;;;;;;;3.03;2.42;;;;;;;;;;5082271;28;20200;-69
2023/06/09 08:38:02;;;;;;;3.22;2.30;;;;;;;;;;5082310;28;20196;-69
2023/06/09 08:40:28;;;;;;;3.22;3.00;;;;;;;;;;5082352;28;20234;-69
2023/06/09 08:42:55;;;;;;;2.47;2.38;;;;;;;;;;5082196;28;20253;-69
2023/06/09 08:45:22;;;;;;;2.47;2.38;;;;;;;;;;5082036;28;20561;-69
2023/06/09 08:47:49;;;;;;;2.72;2.63;;;;;;;;;;5081809;28;20219;-69
2023/06/09 08:50:16;;;;;;;2.92;2.83;;;;;;;;;;5081758;28;20246;-69
2023/06/09 08:52:44;;;;;;;3.28;3.00;;;;;;;;;;5081885;28;20200;-69
2023/06/09 08:55:10;;;;;;;3.33;3.10;;;;;;;;;;5081886;28;20199;-69
2023/06/09 08:57:36;;;;;;;3.10;2.70;;;;;;;;;;5082093;28;20192;-69
2023/06/09 09:00:04;;;;;;;2.95;2.85;;;;;;;;;;5082499;28;20199;-69
2023/06/09 09:02:31;;;;;;;3.35;3.15;;;;;;;;;;5073827;28;20196;-58
2023/06/09 09:05:00;;;;;;;5.03;2.90;;;;;;;;;;5082281;28;20200;-57
2023/06/09 09:07:27;;;;;;;2.83;2.72;;;;;;;;;;5081551;28;20245;-58
2023/06/09 09:09:55;;;;;;;4.30;2.65;;;;;;;;;;5082036;28;20208;-57
2023/06/09 09:12:21;;;;;;;4.68;2.78;;;;;;;;;;5081797;28;20200;-58
2023/06/09 09:14:47;;;;;;;2.58;2.47;;;;;;;;;;5081894;28;20203;-58
2023/06/09 09:17:14;;;;;;;2.80;2.70;;;;;;;;;;5081550;28;20200;-58
2023/06/09 09:19:43;;;;;;;2.75;2.60;;;;;;;;;;5081955;28;20234;-58
2023/06/09 09:22:10;;;;;;;4.35;2.70;;;;;;;;;;5081898;28;20530;-57
2023/06/09 09:24:36;;;;;;;5.70;2.83;;;;;;;;;;5082313;28;20263;-58
2023/06/09 09:27:12;;;;;;;2.75;2.65;;;;;;;;;;5081629;28;20204;-58
2023/06/09 09:29:40;;;;;;;2.25;2.10;;;;;;;;;;5074406;28;20246;-58
2023/06/09 09:32:07;;;;;;;2.75;2.50;;;;;;;;;;5081907;28;20373;-58
2023/06/09 09:34:33;;;;;;;2.83;2.38;;;;;;;;;;5073483;28;20199;-58
2023/06/09 09:37:01;;;;;;;2.13;2.13;;;;;;;;;;5084251;28;20200;-58
2023/06/09 09:39:27;;;;;;;2.58;2.40;;;;;;;;;;5085549;28;20222;-57
2023/06/09 09:42:07;;;;;;;2.28;2.17;;;;;;;;;;5086092;28;20200;-58
2023/06/09 09:44:37;;;;;;;2.25;2.10;;;;;;;;;;5077508;28;20204;-58
2023/06/09 09:47:04;;;;;;;3.80;2.10;;;;;;;;;;5085476;28;20346;-58
2023/06/09 09:49:30;;;;;;;2.58;2.50;;;;;;;;;;5084930;28;20234;-58
2023/06/09 09:51:58;;;;;;;2.65;2.55;;;;;;;;;;5085557;28;20195;-56
2023/06/09 09:54:25;;;;;;;2.42;2.33;;;;;;;;;;5085297;28;20267;-57
2023/06/09 09:56:52;;;;;;;2.33;2.10;;;;;;;;;;5084883;28;20561;-57
2023/06/09 09:59:19;;;;;;;2.00;1.90;;;;;;;;;;5085219;28;20415;-58
2023/06/09 10:01:46;;;;;;;2.40;2.35;;;;;;;;;;5085351;28;20242;-58
2023/06/09 10:04:12;;;;;;;2.85;2.50;;;;;;;;;;5085017;28;20267;-58
2023/06/09 10:06:39;;;;;;;2.00;2.00;;;;;;;;;;5084766;28;20199;-58
2023/06/09 10:09:05;;;;;;;2.70;1.80;;;;;;;;;;5084958;28;20226;-58
2023/06/09 10:11:32;;;;;;;2.10;1.95;;;;;;;;;;5084755;28;20199;-58
2023/06/09 10:13:59;;;;;;;2.10;2.00;;;;;;;;;;5085180;28;20495;-58
2023/06/09 10:16:28;;;;;;;2.67;2.10;;;;;;;;;;5084637;28;20529;-57
2023/06/09 10:18:54;;;;;;;1.98;1.90;;;;;;;;;;5084962;28;20245;-58
2023/06/09 10:21:21;;;;;;;1.92;1.92;;;;;;;;;;5084746;28;20441;-57
2023/06/09 10:23:47;;;;;;;2.40;2.30;;;;;;;;;;5084737;28;20204;-57
2023/06/09 10:26:14;;;;;;;2.80;2.60;;;;;;;;;;5084559;28;20253;-58
2023/06/09 10:28:40;;;;;;;2.00;1.90;;;;;;;;;;5084812;28;20406;-58
2023/06/09 10:31:11;;;;;;;3.35;2.28;;;;;;;;;;5084631;28;20208;-58
2023/06/09 10:33:41;;;;;;;6.53;1.90;;;;;;;;;;5084662;28;20200;-58
2023/06/09 10:36:09;;;;;;;2.25;1.63;;;;;;;;;;5084274;28;20200;-57
2023/06/09 10:38:40;;;;;;;2.22;2.03;;;;;;;;;;5076037;28;20200;-58
2023/06/09 10:41:10;;;;;;;2.58;1.90;;;;;;;;;;5084707;28;20394;-58
2023/06/09 10:43:45;;;;;;;1.60;1.50;;;;;;;;;;5076412;28;20526;-57
2023/06/09 10:46:12;;;;;;;1.85;1.75;;;;;;;;;;5084451;28;20487;-58
2023/06/09 10:48:44;;;;;;;1.98;1.88;;;;;;;;;;5083666;28;20270;-58
2023/06/09 10:51:29;;;;;;;1.90;1.90;;;;;;;;;;5084507;28;20395;-58
2023/06/09 10:54:25;;;;;;;2.15;2.03;;;;;;;;;;5078914;28;20203;-57
2023/06/09 10:56:53;;;;;;;2.38;1.98;;;;;;;;;;5050263;28;20501;-57
2023/06/09 10:59:38;;;;;;;1.40;1.30;;;;;;;;;;5076449;28;20196;-58
2023/06/09 11:02:23;;;;;;;2.03;1.73;;;;;;;;;;5084085;28;20604;-58
2023/06/09 11:04:52;;;;;;;1.92;1.83;;;;;;;;;;5077440;28;20523;-58
2023/06/09 11:07:19;;;;;;;2.10;2.10;;;;;;;;;;5083538;28;20221;-59
2023/06/09 11:10:16;;;;;;;2.45;2.25;;;;;;;;;;5083722;28;20281;-58
2023/06/09 11:12:45;;;;;;;4.13;2.30;;;;;;;;;;5076162;28;20208;-58
2023/06/09 11:15:12;;;;;;;2.33;2.22;;;;;;;;;;5083866;28;20208;-58
2023/06/09 11:17:40;;;;;;;1.85;1.80;;;;;;;;;;5083468;28;20196;-59
2023/06/09 11:20:15;;;;;;;2.10;2.00;;;;;;;;;;5083694;28;20196;-58
2023/06/09 11:22:58;;;;;;;2.10;2.00;;;;;;;;;;5076099;28;20206;-57
2023/06/09 11:25:37;;;;;;;2.38;2.17;;;;;;;;;;5083412;28;20200;-58
2023/06/09 11:28:19;;;;;;;2.15;2.05;;;;;;;;;;5083334;28;20226;-59
2023/06/09 11:31:02;;;;;;;2.20;2.10;;;;;;;;;;5076486;28;20450;-58
2023/06/09 11:33:42;;;;;;;2.67;2.58;;;;;;;;;;5083516;28;20203;-58
2023/06/09 11:36:12;;;;;;;2.88;2.10;;;;;;;;;;5083285;28;20227;-58
2023/06/09 11:38:38;;;;;;;2.47;2.33;;;;;;;;;;5083214;28;20200;-58
2023/06/09 11:41:07;;;;;;;2.70;2.20;;;;;;;;;;5083119;28;20208;-59
2023/06/09 11:43:34;;;;;;;4.22;2.15;;;;;;;;;;5083243;28;20267;-58
2023/06/09 11:46:01;;;;;;;1.98;1.98;;;;;;;;;;5083032;28;20629;-58
2023/06/09 11:48:27;;;;;;;2.22;2.10;;;;;;;;;;5083208;28;20200;-58
2023/06/09 11:50:53;;;;;;;2.35;2.25;;;;;;;;;;5083171;28;20200;-59
2023/06/09 11:53:21;;;;;;;5.22;2.20;;;;;;;;;;5082766;28;20200;-58
2023/06/09 11:55:56;;;;;;;2.55;2.00;;;;;;;;;;5083159;28;20204;-58
2023/06/09 11:58:23;;;;;;;4.32;2.05;;;;;;;;;;5081743;28;20207;-57
2023/06/09 12:00:49;;;;;;;2.00;1.90;;;;;;;;;;5082489;28;20253;-58
2023/06/09 12:03:17;;;;;;;2.05;1.95;;;;;;;;;;5082439;28;20227;-58
2023/06/09 12:05:46;;;;;;;2.03;2.03;;;;;;;;;;5082260;28;20216;-57
2023/06/09 12:08:13;;;;;;;2.13;2.03;;;;;;;;;;5081609;28;20212;-57
2023/06/09 12:10:40;;;;;;;2.38;1.83;;;;;;;;;;5076550;28;20224;-57
2023/06/09 12:13:07;;;;;;;1.98;1.88;;;;;;;;;;5075534;28;20204;-58
2023/06/09 12:15:33;;;;;;;1.60;1.60;;;;;;;;;;5080700;28;20556;-58
2023/06/09 12:18:01;;;;;;;2.25;1.83;;;;;;;;;;5081694;28;20200;-56
2023/06/09 12:20:28;;;;;;;4.10;1.80;;;;;;;;;;5081791;28;20204;-58
2023/06/09 12:22:55;;;;;;;2.05;2.00;;;;;;;;;;5082233;28;20216;-57
2023/06/09 12:25:23;;;;;;;3.30;1.60;;;;;;;;;;5079652;28;20203;-58
2023/06/09 12:27:51;;;;;;;2.15;2.03;;;;;;;;;;5079658;28;20456;-58
2023/06/09 12:30:32;;;;;;;1.95;1.90;;;;;;;;;;5077078;28;20215;-58
2023/06/09 12:32:58;;;;;;;1.95;1.90;;;;;;;;;;5078219;28;20215;-57
2023/06/09 12:35:24;;;;;;;2.13;1.77;;;;;;;;;;5075204;28;20241;-57
2023/06/09 12:37:50;;;;;;;2.20;2.10;;;;;;;;;;5079376;28;20257;-57
2023/06/09 12:40:17;;;;;;;2.25;2.13;;;;;;;;;;5077358;28;20192;-58
2023/06/09 12:42:47;;;;;;;4.05;2.00;;;;;;;;;;5075938;28;20456;-58
2023/06/09 12:45:15;;;;;;;2.42;2.25;;;;;;;;;;5079381;28;20204;-57
2023/06/09 12:47:47;;;;;;;1.88;1.88;;;;;;;;;;5078742;28;20508;-58
2023/06/09 12:50:13;;;;;;;4.38;2.20;;;;;;;;;;5079585;28;20234;-58
2023/06/09 12:52:39;;;;;;;3.05;2.30;;;;;;;;;;5081697;28;20257;-57
2023/06/09 12:55:06;;;;;;;2.40;2.20;;;;;;;;;;5081606;28;20207;-56
2023/06/09 12:57:33;;;;;;;2.33;2.33;;;;;;;;;;5081086;28;20199;-57
2023/06/09 13:00:01;;;;;;;3.00;2.10;;;;;;;;;;5081331;28;20200;-56
2023/06/09 13:02:29;;;;;;;2.40;2.30;;;;;;;;;;5081682;28;20275;-57
2023/06/09 13:04:55;;;;;;;3.40;2.38;;;;;;;;;;5081400;28;20242;-57
2023/06/09 13:07:22;;;;;;;4.00;2.38;;;;;;;;;;5081173;28;20599;-57
2023/06/09 13:09:48;;;;;;;2.58;2.40;;;;;;;;;;5081112;28;20311;-57
2023/06/09 13:12:14;;;;;;;2.38;2.33;;;;;;;;;;5085521;28;20196;-57
2023/06/09 13:14:40;;;;;;;2.50;2.40;;;;;;;;;;5085528;28;20209;-57
2023/06/09 13:17:07;;;;;;;2.47;2.30;;;;;;;;;;5086059;28;20195;-56
2023/06/09 13:19:34;;;;;;;2.22;2.13;;;;;;;;;;5086030;28;20237;-57
2023/06/09 13:22:00;;;;;;;2.22;2.13;;;;;;;;;;5086057;28;20503;-57
2023/06/09 13:24:27;;;;;;;2.55;2.35;;;;;;;;;;5085610;28;20196;-57
2023/06/09 13:26:53;;;;;;;2.28;2.17;;;;;;;;;;5085473;28;20220;-57
2023/06/09 13:29:19;;;;;;;2.35;2.30;;;;;;;;;;5085541;28;20315;-57
2023/06/09 13:31:45;;;;;;;2.47;2.35;;;;;;;;;;5085800;28;20428;-57
2023/06/09 13:34:13;;;;;;;2.40;2.30;;;;;;;;;;5085761;28;20500;-57
2023/06/09 13:36:40;;;;;;;2.10;2.10;;;;;;;;;;5085159;28;20203;-57
2023/06/09 13:39:06;;;;;;;1.92;1.83;;;;;;;;;;5085428;28;20519;-57
2023/06/09 13:41:33;;;;;;;1.73;1.73;;;;;;;;;;5085155;28;20196;-57
2023/06/09 13:43:59;;;;;;;2.47;2.28;;;;;;;;;;5085154;28;20196;-58
2023/06/09 13:46:26;;;;;;;2.20;1.95;;;;;;;;;;5084838;28;20203;-58
2023/06/09 13:48:52;;;;;;;3.97;2.33;;;;;;;;;;5085297;28;20196;-57
2023/06/09 13:51:18;;;;;;;2.33;2.22;;;;;;;;;;5085266;28;20215;-58
2023/06/09 13:53:46;;;;;;;2.00;2.00;;;;;;;;;;5085007;28;20503;-57
2023/06/09 13:56:12;;;;;;;2.75;1.92;;;;;;;;;;5084871;28;20196;-57
2023/06/09 13:58:38;;;;;;;3.40;2.10;;;;;;;;;;5084800;28;20200;-57
2023/06/09 14:01:04;;;;;;;2.00;1.90;;;;;;;;;;5084824;28;20192;-57
2023/06/09 14:03:30;;;;;;;2.63;2.10;;;;;;;;;;5085097;28;20199;-57
2023/06/09 14:05:57;;;;;;;2.58;2.38;;;;;;;;;;5085132;28;20196;-57
2023/06/09 14:08:23;;;;;;;2.10;2.10;;;;;;;;;;5084776;28;20199;-57
2023/06/09 14:10:51;;;;;;;4.82;2.20;;;;;;;;;;5085046;28;20212;-56
2023/06/09 14:13:17;;;;;;;2.30;2.20;;;;;;;;;;5084564;28;20199;-57
2023/06/09 14:15:43;;;;;;;2.33;2.13;;;;;;;;;;5084908;28;20444;-69
2023/06/09 14:18:10;;;;;;;2.00;1.90;;;;;;;;;;5082171;28;20196;-68
2023/06/09 14:20:36;;;;;;;2.42;2.15;;;;;;;;;;5083387;28;20558;-68
2023/06/09 14:23:08;;;;;;;6.35;2.08;;;;;;;;;;5083149;28;20208;-68
2023/06/09 14:25:35;;;;;;;2.20;2.00;;;;;;;;;;5081723;28;20203;-69
2023/06/09 14:28:02;;;;;;;2.13;1.90;;;;;;;;;;5079373;28;20301;-68
2023/06/09 14:30:29;;;;;;;2.92;2.15;;;;;;;;;;5080309;28;20220;-68
2023/06/09 14:32:55;;;;;;;2.30;2.20;;;;;;;;;;5083066;28;20203;-68
2023/06/09 14:35:23;;;;;;;2.22;2.00;;;;;;;;;;5083445;28;20203;-68
2023/06/09 14:37:50;;;;;;;2.00;2.00;;;;;;;;;;5083227;28;20196;-68
2023/06/09 14:40:17;;;;;;;2.40;2.00;;;;;;;;;;5083701;28;20235;-68
2023/06/09 14:42:45;;;;;;;2.00;2.00;;;;;;;;;;5084249;28;20250;-68